Darstellungsparameter: Aktuell verwendete Einstellungen:
Skalierung der Graphiken ... ?
xyx+y,   Skalierungsfaktor:      Skalierung: Modus: x, Faktor: 1
Darstellungszeitraum ... ?
Vom - - bis: - -   Zeitraum: 16.08.2011 - 15.08.2014
Min/Max/Avg-Anzeige ... ?
Zeige MMA aktuell
Zeige MMA Monat
Zeige MMA alles
Zeige --A aktuell
Zeige --A Monat
Zeige --A alles
Keine MMA-Anzeige
MMA:
Minimum Maximum Average (ber die Originaldaten)
MMA-Basis: 16.08.2011 - 15.08.2014
Quicknavigation für Darstellung... ?
Tage:      1T, 2T, 3T, 5T -1T -2T -3T -5T +1T +2T +3T +5T
Wochen: 1W, 2W, 3W -1W -2W -3W +1W +2W +3W
Monate: 1M, 3M, 6M -1M -3M -6M +1M +3M +6M
Jahre:    1J, 3J, 5J, 10J -1J -3J -5J -10J +1J +3J +5J +10J
Nutze für die Darstellung ... ?
Originaldaten oder ...
Mittelwerte Minima Maxima auf...
Stundenbasis Tagesbasis Wochenbasis
Monatsbasis Jahresbasis      Datenbasis: Mittelwerte auf Tagesbasis
Darstellen als:
Statistik (Auto) Statistik J:M      Darstellung:
Zur Graphik,    zurück zur Übersicht aller Sensoren.
 
Tabellarische Datenbersicht: ?
 
Sensor: Nr:Datum:Temp:Feuchte:Taupunkt:
Aussen-T/F 1 16-08-2011 00:00:00 18.73083 C 60.4333 % 10.92 C
2 17-08-2011 00:00:00 18.89 C 66.1833 % 12.45 C
3 18-08-2011 00:00:00 22.63167 C 61.2417 % 14.79 C
4 19-08-2011 00:00:00 19.24667 C 68.7333 % 13.36 C
5 20-08-2011 00:00:00 18.59833 C 65.7167 % 12.06 C
6 21-08-2011 00:00:00 20.63583 C 69.0417 % 14.76 C
7 22-08-2011 00:00:00 23.83613 C 62.0504 % 16.13 C
8 23-08-2011 00:00:00 23.46583 C 60.9833 % 15.51 C
9 24-08-2011 00:00:00 20.97833 C 67.3417 % 14.7 C
10 25-08-2011 00:00:00 20.68833 C 69.8333 % 14.99 C
11 26-08-2011 00:00:00 20.87 C 74.2833 % 16.12 C
12 27-08-2011 00:00:00 15.035 C 76.8333 % 11.01 C
13 28-08-2011 00:00:00 15.25583 C 63.6333 % 8.41 C
14 29-08-2011 00:00:00 14.68667 C 59.3667 % 6.86 C
15 30-08-2011 00:00:00 12.15833 C 69.4583 % 6.74 C
16 31-08-2011 00:00:00 13.1325 C 69.1000 % 7.6 C
17 01-09-2011 00:00:00 15.16083 C 67.3250 % 9.15 C
18 02-09-2011 00:00:00 17.55667 C 71.4250 % 12.33 C
19 03-09-2011 00:00:00 20.71597 C 69.7311 % 14.99 C
20 04-09-2011 00:00:00 21.65833 C 66.8333 % 15.23 C
21 05-09-2011 00:00:00 17.79667 C 52.4583 % 7.95 C
22 06-09-2011 00:00:00 15.93333 C 57.8333 % 7.64 C
23 07-09-2011 00:00:00 16.43 C 56.2417 % 7.7 C
24 08-09-2011 00:00:00 15.3775 C 59.5333 % 7.55 C
25 09-09-2011 00:00:00 18.46 C 74.5500 % 13.86 C
Sensor: Nr:Datum:Temp:Feuchte:Taupunkt:
Aussen-T/F 26 10-09-2011 00:00:00 21.15667 C 77.6667 % 17.1 C
27 11-09-2011 00:00:00 17.895 C 81.2500 % 14.64 C
28 12-09-2011 00:00:00 17.43583 C 68.8250 % 11.65 C
29 13-09-2011 00:00:00 18.005 C 66.8333 % 11.75 C
30 14-09-2011 00:00:00 14.43917 C 60.2417 % 6.84 C
31 15-09-2011 00:00:00 13.91583 C 66.4583 % 7.78 C
32 16-09-2011 00:00:00 12.79667 C 78.8750 % 9.23 C
33 17-09-2011 00:00:00 16.78824 C 67.5798 % 10.76 C
34 18-09-2011 00:00:00 12.7625 C 73.2333 % 8.1 C
35 19-09-2011 00:00:00 12.76833 C 68.7167 % 7.17 C
36 20-09-2011 00:00:00 12.41333 C 74.0667 % 7.93 C
37 21-09-2011 00:00:00 13.775 C 70.1333 % 8.43 C
38 22-09-2011 00:00:00 15.79167 C 59.3417 % 7.89 C
39 23-09-2011 00:00:00 14.20917 C 64.8250 % 7.69 C
40 24-09-2011 00:00:00 12.8025 C 74.2750 % 8.34 C
41 25-09-2011 00:00:00 14.1125 C 76.8000 % 10.11 C
42 26-09-2011 00:00:00 15.74917 C 76.1250 % 11.56 C
43 27-09-2011 00:00:00 17.1525 C 74.8583 % 12.66 C
44 28-09-2011 00:00:00 16.71 C 77.5333 % 12.77 C
45 29-09-2011 00:00:00 16.13167 C 75.2500 % 11.75 C
46 30-09-2011 00:00:00 14.48824 C 75.4034 % 10.2 C
47 01-10-2011 00:00:00 14.3525 C 77.3833 % 10.45 C
48 02-10-2011 00:00:00 14.74 C 77.1417 % 10.78 C
49 03-10-2011 00:00:00 15.125 C 75.4750 % 10.82 C
50 04-10-2011 00:00:00 16.96167 C 63.1167 % 9.9 C
Sensor: Nr:Datum:Temp:Feuchte:Taupunkt:
Aussen-T/F 51 05-10-2011 00:00:00 17.94667 C 59.6250 % 9.98 C
52 06-10-2011 00:00:00 14.175 C 69.3833 % 8.66 C
53 07-10-2011 00:00:00 9.92583 C 66.5083 % 3.99 C
54 08-10-2011 00:00:00 9.01167 C 73.3417 % 4.51 C
55 09-10-2011 00:00:00 9.11667 C 79.0750 % 5.69 C
56 10-10-2011 00:00:00 16.5475 C 68.2167 % 10.67 C
57 11-10-2011 00:00:00 16.37917 C 62.5417 % 9.22 C
58 12-10-2011 00:00:00 15.74333 C 66.8000 % 9.59 C
59 13-10-2011 00:00:00 10.145 C 73.3667 % 5.6 C
60 14-10-2011 00:00:00 6.14286 C 78.8151 % 2.75 C
61 15-10-2011 00:00:00 4.65417 C 78.8000 % 1.3 C
62 16-10-2011 00:00:00 4.29833 C 79.7583 % 1.12 C
63 17-10-2011 00:00:00 6.42917 C 82.1833 % 3.62 C
64 18-10-2011 00:00:00 8.99833 C 81.0167 % 5.92 C
65 19-10-2011 00:00:00 8.2025 C 70.7333 % 3.21 C
66 20-10-2011 00:00:00 5.4275 C 79.8333 % 2.23 C
67 21-10-2011 00:00:00 3.16333 C 87.6917 % 1.32 C
68 22-10-2011 00:00:00 3.45333 C 82.2083 % 0.71 C
69 23-10-2011 00:00:00 2.44833 C 85.8917 % 0.33 C
70 24-10-2011 00:00:00 5.85083 C 75.8167 % 1.92 C
71 25-10-2011 00:00:00 9.17417 C 73.4750 % 4.69 C
72 26-10-2011 00:00:00 9.305 C 71.1750 % 4.36 C
73 27-10-2011 00:00:00 5.69333 C 85.4917 % 3.46 C
74 28-10-2011 00:00:00 8.32857 C 86.7731 % 6.26 C
75 29-10-2011 00:00:00 10.61667 C 83.0000 % 7.85 C
Sensor: Nr:Datum:Temp:Feuchte:Taupunkt:
Aussen-T/F 76 30-10-2011 00:00:00 12.2192 C 86.1680 % 9.98 C
77 31-10-2011 00:00:00 11.39 C 86.4000 % 9.2 C
78 01-11-2011 00:00:00 9.17333 C 84.4083 % 6.69 C
79 02-11-2011 00:00:00 10.59667 C 80.8500 % 7.45 C
80 03-11-2011 00:00:00 11.35583 C 71.9417 % 6.48 C
81 04-11-2011 00:00:00 10.15333 C 80.0500 % 6.87 C
82 05-11-2011 00:00:00 10.31333 C 76.4167 % 6.35 C
83 06-11-2011 00:00:00 8.90583 C 84.0333 % 6.36 C
84 07-11-2011 00:00:00 8.85 C 80.9583 % 5.77 C
85 08-11-2011 00:00:00 5.84583 C 87.4583 % 3.93 C
86 09-11-2011 00:00:00 6.5025 C 86.5500 % 4.43 C
87 10-11-2011 00:00:00 6.29328 C 81.6218 % 3.39 C
88 11-11-2011 00:00:00 6.25417 C 76.0750 % 2.36 C
89 12-11-2011 00:00:00 4.20083 C 82.4417 % 1.48 C
90 13-11-2011 00:00:00 4.15833 C 85.7750 % 1.99 C
91 14-11-2011 00:00:00 0.35917 C 92.4167 % -0.72 C
92 15-11-2011 00:00:00 0.25583 C 92.2667 % -0.85 C
93 16-11-2011 00:00:00 -1.305 C 91.7000 % -2.48 C
94 17-11-2011 00:00:00 3.935 C 80.2583 % 0.85 C
95 18-11-2011 00:00:00 7.49833 C 83.7333 % 4.93 C
96 19-11-2011 00:00:00 5.435 C 89.5667 % 3.86 C
97 20-11-2011 00:00:00 6.58083 C 80.3583 % 3.45 C
98 21-11-2011 00:00:00 1.40917 C 92.2250 % 0.29 C
99 22-11-2011 00:00:00 1.14083 C 92.1583 % 0.01 C
100 23-11-2011 00:00:00 1.59583 C 92.8833 % 0.57 C
Sensor: Nr:Datum:Temp:Feuchte:Taupunkt:
Aussen-T/F 101 24-11-2011 00:00:00 2.37083 C 92.1167 % 1.23 C
102 25-11-2011 00:00:00 1.0775 C 85.7083 % -1.04 C
103 26-11-2011 00:00:00 6.25167 C 75.0583 % 2.17 C
104 27-11-2011 00:00:00 7.40833 C 70.7917 % 2.46 C
105 28-11-2011 00:00:00 0.83833 C 92.3250 % -0.26 C
106 29-11-2011 00:00:00 1.88167 C 89.6667 % 0.37 C
107 30-11-2011 00:00:00 4.85083 C 85.9250 % 2.7 C
108 01-12-2011 00:00:00 5.52417 C 87.8333 % 3.67 C
109 02-12-2011 00:00:00 7.12667 C 77.6917 % 3.5 C
110 03-12-2011 00:00:00 6.26583 C 76.7250 % 2.49 C
111 04-12-2011 00:00:00 8.2975 C 80.9000 % 5.22 C
112 05-12-2011 00:00:00 4.38417 C 71.7167 % -0.26 C
113 06-12-2011 00:00:00 4.445 C 67.2500 % -1.08 C
114 07-12-2011 00:00:00 5.57833 C 70.8167 % 0.71 C
115 08-12-2011 00:00:00 6.22333 C 62.1250 % -0.48 C
116 09-12-2011 00:00:00 5.94583 C 71.2167 % 1.14 C
117 10-12-2011 00:00:00 1.885 C 76.4500 % -1.81 C
118 11-12-2011 00:00:00 0.43667 C 83.0417 % -2.1 C
119 12-12-2011 00:00:00 5.96583 C 76.8000 % 2.21 C
120 13-12-2011 00:00:00 6.86417 C 68.8250 % 1.55 C
121 14-12-2011 00:00:00 6.68371 C 80.3447 % 3.55 C
122 15-12-2011 00:00:00 6.13646 C 77.7778 % 2.56 C
123 16-12-2011 00:00:00 6.07222 C 83.0347 % 3.41 C
124 17-12-2011 00:00:00 3.63507 C 84.7535 % 1.31 C
125 18-12-2011 00:00:00 2.25764 C 86.7604 % 0.29 C
Sensor: Nr:Datum:Temp:Feuchte:Taupunkt:
Aussen-T/F 126 19-12-2011 00:00:00 1.70208 C 86.1250 % -0.36 C
127 20-12-2011 00:00:00 2.28715 C 90.9132 % 0.96 C
128 21-12-2011 00:00:00 4.19792 C 87.9167 % 2.38 C
129 22-12-2011 00:00:00 6.57917 C 94.6910 % 5.79 C
130 23-12-2011 00:00:00 8.41806 C 90.8021 % 7 C
131 24-12-2011 00:00:00 5.63368 C 83.5243 % 3.07 C
132 25-12-2011 00:00:00 5.68472 C 86.3750 % 3.59 C
133 26-12-2011 00:00:00 8.12222 C 89.4931 % 6.5 C
134 27-12-2011 00:00:00 8.25139 C 89.0139 % 6.55 C
135 28-12-2011 00:00:00 5.71424 C 86.6597 % 3.67 C
136 29-12-2011 00:00:00 5.51667 C 80.4757 % 2.43 C
137 30-12-2011 00:00:00 4.24861 C 83.3125 % 1.68 C
138 31-12-2011 00:00:00 5.15729 C 93.6007 % 4.21 C
139 01-01-2012 00:00:00 12.02807 C 88.3754 % 10.17 C
140 02-01-2012 00:00:00 8.87847 C 88.2917 % 7.05 C
141 03-01-2012 00:00:00 7.43403 C 81.7917 % 4.53 C
142 04-01-2012 00:00:00 6.56875 C 76.5174 % 2.75 C
143 05-01-2012 00:00:00 6.88368 C 80.3785 % 3.75 C
144 06-01-2012 00:00:00 5.40208 C 81.6389 % 2.52 C
145 07-01-2012 00:00:00 5.54653 C 84.9201 % 3.22 C
146 08-01-2012 00:00:00 5.96042 C 84.6111 % 3.57 C
147 09-01-2012 00:00:00 6.11424 C 89.9479 % 4.59 C
148 10-01-2012 00:00:00 6.93056 C 91.1319 % 5.59 C
149 11-01-2012 00:00:00 8.11597 C 82.0938 % 5.25 C
150 12-01-2012 00:00:00 8.18819 C 82.4028 % 5.37 C
Sensor: Nr:Datum:Temp:Feuchte:Taupunkt:
Aussen-T/F 151 13-01-2012 00:00:00 5.12569 C 75.8264 % 1.22 C
152 14-01-2012 00:00:00 3.95417 C 78.8958 % 0.63 C
153 15-01-2012 00:00:00 -0.23715 C 94.8993 % -0.95 C
154 16-01-2012 00:00:00 -1.80312 C 94.0521 % -2.63 C
155 17-01-2012 00:00:00 -2.78368 C 92.5069 % -3.83 C
156 18-01-2012 00:00:00 -0.12708 C 89.9653 % -1.57 C
157 19-01-2012 00:00:00 6.67639 C 90.1007 % 5.17 C
158 20-01-2012 00:00:00 4.025 C 86.9236 % 2.05 C
159 21-01-2012 00:00:00 5.73681 C 89.5382 % 4.15 C
160 22-01-2012 00:00:00 6.85764 C 76.0660 % 2.94 C
161 23-01-2012 00:00:00 5.22708 C 82.6806 % 2.53 C
162 24-01-2012 00:00:00 3.1191 C 90.7222 % 1.75 C
163 25-01-2012 00:00:00 0.47708 C 94.7813 % -0.26 C
164 26-01-2012 00:00:00 1.84132 C 84.3368 % -0.51 C
165 27-01-2012 00:00:00 2.58437 C 92.0104 % 1.42 C
166 28-01-2012 00:00:00 2.69896 C 87.8090 % 0.89 C
167 29-01-2012 00:00:00 0.84583 C 81.3299 % -1.98 C
168 30-01-2012 00:00:00 -0.00208 C 80.3854 % -2.97 C
169 31-01-2012 00:00:00 -1.90972 C 70.0243 % -6.64 C
170 01-02-2012 00:00:00 -5.28403 C 61.1667 % -11.58 C
171 02-02-2012 00:00:00 -7.12396 C 51.7535 % -15.35 C
172 03-02-2012 00:00:00 -8.52361 C 68.2153 % -13.32 C
173 04-02-2012 00:00:00 -8.31389 C 77.7396 % -11.5 C
174 05-02-2012 00:00:00 -9.04861 C 72.3715 % -13.1 C
175 06-02-2012 00:00:00 -9.67674 C 69.6979 % -14.16 C
Sensor: Nr:Datum:Temp:Feuchte:Taupunkt:
Aussen-T/F 176 07-02-2012 00:00:00 -9.19832 C 69.3067 % -13.77 C
177 08-02-2012 00:00:00 -5.57083 C 72.6528 % -9.69 C
178 09-02-2012 00:00:00 -7.39479 C 86.5868 % -9.24 C
179 10-02-2012 00:00:00 -6.11875 C 75.6354 % -9.71 C
180 11-02-2012 00:00:00 -8.24931 C 70.5451 % -12.64 C
181 12-02-2012 00:00:00 -6.58063 C 72.4466 % -10.7 C
182 13-02-2012 00:00:00 -0.88993 C 82.6458 % -3.46 C
183 14-02-2012 00:00:00 1.59931 C 93.4410 % 0.66 C
184 15-02-2012 00:00:00 3.97674 C 86.0694 % 1.86 C
185 16-02-2012 00:00:00 3.54896 C 91.1875 % 2.25 C
186 17-02-2012 00:00:00 5.57917 C 87.8576 % 3.73 C
187 18-02-2012 00:00:00 6.37083 C 88.0556 % 4.54 C
188 19-02-2012 00:00:00 2.99271 C 87.9861 % 1.2 C
189 20-02-2012 00:00:00 1.18333 C 84.9583 % -1.06 C
190 21-02-2012 00:00:00 1.84583 C 78.4063 % -1.5 C
191 22-02-2012 00:00:00 3.17951 C 81.1493 % 0.27 C
192 23-02-2012 00:00:00 6.17352 C 81.6864 % 3.28 C
193 24-02-2012 00:00:00 9.38101 C 86.6938 % 7.28 C
194 25-02-2012 00:00:00 8.6186 C 80.9439 % 5.54 C
195 26-02-2012 00:00:00 5.29167 C 88.4757 % 3.55 C
196 27-02-2012 00:00:00 5.81944 C 83.3333 % 3.22 C
197 28-02-2012 00:00:00 8.57639 C 85.4861 % 6.28 C
198 29-02-2012 00:00:00 9.49583 C 92.3403 % 8.32 C
199 01-03-2012 00:00:00 9.01563 C 93.6979 % 8.06 C
200 02-03-2012 00:00:00 8.57986 C 92.6771 % 7.46 C
Sensor: Nr:Datum:Temp:Feuchte:Taupunkt:
Aussen-T/F 201 03-03-2012 00:00:00 7.91597 C 90.3438 % 6.43 C
202 04-03-2012 00:00:00 8.65625 C 81.6354 % 5.7 C
203 05-03-2012 00:00:00 5.81597 C 77.6597 % 2.22 C
204 06-03-2012 00:00:00 5.43924 C 73.2222 % 1.04 C
205 07-03-2012 00:00:00 2.91784 C 81.1970 % 0.02 C
206 08-03-2012 00:00:00 5.35833 C 80.5347 % 2.29 C
207 09-03-2012 00:00:00 4.88437 C 78.4410 % 1.46 C
208 10-03-2012 00:00:00 8.58723 C 78.8759 % 5.14 C
209 11-03-2012 00:00:00 9.26151 C 82.9496 % 6.52 C
210 12-03-2012 00:00:00 8.06347 C 86.5240 % 5.96 C
211 13-03-2012 00:00:00 7.68299 C 83.6458 % 5.1 C
212 14-03-2012 00:00:00 6.93542 C 78.8819 % 3.53 C
213 15-03-2012 00:00:00 7.07812 C 79.2431 % 3.73 C
214 16-03-2012 00:00:00 10.0412 C 69.7077 % 4.77 C
215 17-03-2012 00:00:00 9.42917 C 75.0799 % 5.24 C
216 18-03-2012 00:00:00 8.64931 C 83.8368 % 6.07 C
217 19-03-2012 00:00:00 7.34303 C 72.1270 % 2.66 C
218 20-03-2012 00:00:00 6.68807 C 68.1687 % 1.25 C
219 21-03-2012 00:00:00 7.73902 C 69.3206 % 2.49 C
220 22-03-2012 00:00:00 10.04583 C 71.3403 % 5.1 C
221 23-03-2012 00:00:00 11.69132 C 71.9826 % 6.82 C
222 24-03-2012 00:00:00 11.62674 C 70.9132 % 6.54 C
223 25-03-2012 00:00:00 12.80873 C 62.8291 % 5.91 C
224 26-03-2012 00:00:00 11.16806 C 58.5764 % 3.36 C
225 27-03-2012 00:00:00 11.10694 C 65.9826 % 5 C
Sensor: Nr:Datum:Temp:Feuchte:Taupunkt:
Aussen-T/F 226 28-03-2012 00:00:00 11.74201 C 67.7188 % 5.98 C
227 29-03-2012 00:00:00 9.58194 C 71.1354 % 4.62 C
228 30-03-2012 00:00:00 9.39062 C 79.1701 % 5.97 C
229 31-03-2012 00:00:00 7.98706 C 76.3042 % 4.08 C
230 01-04-2012 00:00:00 4.77396 C 63.6736 % -1.51 C
231 02-04-2012 00:00:00 6.69514 C 71.1493 % 1.85 C
232 03-04-2012 00:00:00 11.08125 C 62.9931 % 4.31 C
233 04-04-2012 00:00:00 9.89722 C 82.2743 % 7.02 C
234 05-04-2012 00:00:00 7.74514 C 80.8958 % 4.68 C
235 06-04-2012 00:00:00 7.88292 C 67.6655 % 2.28 C
236 07-04-2012 00:00:00 5.61389 C 72.7882 % 1.13 C
237 08-04-2012 00:00:00 5.19194 C 54.1941 % -3.29 C
238 09-04-2012 00:00:00 7.24583 C 83.3264 % 4.61 C
239 10-04-2012 00:00:00 11.25451 C 77.8646 % 7.54 C
240 11-04-2012 00:00:00 9.71215 C 72.8056 % 5.08 C
241 12-04-2012 00:00:00 6.41736 C 84.4444 % 3.99 C
242 13-04-2012 00:00:00 6.76632 C 81.2847 % 3.79 C
243 14-04-2012 00:00:00 7.83021 C 71.5486 % 3.02 C
244 15-04-2012 00:00:00 8.52361 C 73.9826 % 4.16 C
245 16-04-2012 00:00:00 5.92438 C 63.9835 % -0.36 C
246 17-04-2012 00:00:00 5.90382 C 59.8090 % -1.3 C
247 18-04-2012 00:00:00 8.72674 C 72.5451 % 4.08 C
248 19-04-2012 00:00:00 8.47422 C 80.8084 % 5.37 C
249 20-04-2012 00:00:00 7.34574 C 84.4529 % 4.9 C
250 21-04-2012 00:00:00 8.16701 C 81.3229 % 5.16 C
Sensor: Nr:Datum:Temp:Feuchte:Taupunkt:
Aussen-T/F 251 22-04-2012 00:00:00 7.84306 C 80.2049 % 4.65 C
252 23-04-2012 00:00:00 8.39097 C 79.6389 % 5.08 C
253 24-04-2012 00:00:00 8.89757 C 84.6181 % 6.45 C
254 25-04-2012 00:00:00 10.14167 C 78.2292 % 6.53 C
255 26-04-2012 00:00:00 11.47083 C 79.8958 % 8.13 C
256 27-04-2012 00:00:00 12.5625 C 82.5104 % 9.67 C
257 28-04-2012 00:00:00 18.10903 C 72.5139 % 13.09 C
258 29-04-2012 00:00:00 16.89826 C 73.1979 % 12.07 C
259 30-04-2012 00:00:00 17.93194 C 63.6007 % 10.94 C
260 01-05-2012 00:00:00 17.12465 C 71.7708 % 11.99 C
261 02-05-2012 00:00:00 15.24479 C 86.9549 % 13.09 C
262 03-05-2012 00:00:00 13.43472 C 77.5035 % 9.59 C
263 04-05-2012 00:00:00 14.57083 C 73.6806 % 9.93 C
264 05-05-2012 00:00:00 11.45069 C 92.9271 % 10.35 C
265 06-05-2012 00:00:00 10.57674 C 92.8021 % 9.46 C
266 07-05-2012 00:00:00 10.38681 C 83.5556 % 7.73 C
267 08-05-2012 00:00:00 13.89063 C 73.1215 % 9.16 C
268 09-05-2012 00:00:00 16.78229 C 82.0903 % 13.71 C
269 10-05-2012 00:00:00 19.11111 C 78.7257 % 15.33 C
270 11-05-2012 00:00:00 19.125 C 80.7014 % 15.73 C
271 12-05-2012 00:00:00 11.31289 C 69.8188 % 6.01 C
272 13-05-2012 00:00:00 9.38646 C 66.5382 % 3.48 C
273 14-05-2012 00:00:00 11.40799 C 62.7778 % 4.57 C
274 15-05-2012 00:00:00 9.5625 C 74.6979 % 5.3 C
275 16-05-2012 00:00:00 8.66597 C 76.0417 % 4.69 C
Sensor: Nr:Datum:Temp:Feuchte:Taupunkt:
Aussen-T/F 276 17-05-2012 00:00:00 9.38889 C 67.5799 % 3.7 C
277 18-05-2012 00:00:00 12.68299 C 77.1667 % 8.79 C
278 19-05-2012 00:00:00 15.71389 C 82.6667 % 12.77 C
279 20-05-2012 00:00:00 17.6684 C 78.6076 % 13.91 C
280 21-05-2012 00:00:00 18.52986 C 81.4410 % 15.29 C
281 22-05-2012 00:00:00 21.31944 C 73.3576 % 16.36 C
282 23-05-2012 00:00:00 18.79965 C 89.2743 % 17 C
283 24-05-2012 00:00:00 20.69687 C 73.7639 % 15.85 C
284 25-05-2012 00:00:00 19.45313 C 48.2882 % 8.25 C
285 26-05-2012 00:00:00 18.11007 C 54.3056 % 8.75 C
286 27-05-2012 00:00:00 18.05868 C 62.2743 % 10.74 C
287 28-05-2012 00:00:00 18.93417 C 63.8705 % 11.95 C
288 29-05-2012 00:00:00 18.46288 C 64.9508 % 11.76 C
289 30-05-2012 00:00:00 17.68438 C 78.7569 % 13.95 C
290 31-05-2012 00:00:00 16.03021 C 84.4167 % 13.4 C
291 01-06-2012 00:00:00 15.74271 C 76.1632 % 11.56 C
292 02-06-2012 00:00:00 15.19271 C 70.5938 % 9.89 C
293 03-06-2012 00:00:00 12.60255 C 88.8727 % 10.82 C
294 04-06-2012 00:00:00 13.31389 C 85.8576 % 11 C
295 05-06-2012 00:00:00 12.15312 C 69.0486 % 6.65 C
296 06-06-2012 00:00:00 13.09444 C 86.8056 % 10.95 C
297 07-06-2012 00:00:00 16.45799 C 88.8576 % 14.62 C
298 08-06-2012 00:00:00 17.34097 C 72.3854 % 12.33 C
299 09-06-2012 00:00:00 14.79028 C 66.1215 % 8.53 C
300 10-06-2012 00:00:00 15.29514 C 66.6736 % 9.14 C
Sensor: Nr:Datum:Temp:Feuchte:Taupunkt:
Aussen-T/F 301 11-06-2012 00:00:00 14.57014 C 84.7083 % 12.03 C
302 12-06-2012 00:00:00 14.40729 C 86.0764 % 12.11 C
303 13-06-2012 00:00:00 12.57363 C 92.7692 % 11.44 C
304 14-06-2012 00:00:00 14.15694 C 81.5104 % 11.04 C
305 15-06-2012 00:00:00 16.11806 C 85.0833 % 13.61 C
306 16-06-2012 00:00:00 15.40799 C 92.7326 % 14.24 C
307 17-06-2012 00:00:00 17.28021 C 70.4549 % 11.86 C
308 18-06-2012 00:00:00 18.57292 C 74.0694 % 13.87 C
309 19-06-2012 00:00:00 17.44028 C 82.5590 % 14.44 C
310 20-06-2012 00:00:00 16.35833 C 96.8785 % 15.86 C
311 21-06-2012 00:00:00 18.41354 C 89.4583 % 16.65 C
312 22-06-2012 00:00:00 16.36181 C 75.7083 % 12.07 C
313 23-06-2012 00:00:00 16.63472 C 71.3924 % 11.44 C
314 24-06-2012 00:00:00 14.73507 C 82.4306 % 11.78 C
315 25-06-2012 00:00:00 15.09028 C 78.7917 % 11.44 C
316 26-06-2012 00:00:00 16.43125 C 73.6111 % 11.71 C
317 27-06-2012 00:00:00 18.07569 C 84.8264 % 15.48 C
318 28-06-2012 00:00:00 21.87465 C 80.2743 % 18.32 C
319 29-06-2012 00:00:00 20.49063 C 90.0868 % 18.81 C
320 30-06-2012 00:00:00 20.14965 C 78.6563 % 16.32 C
321 01-07-2012 00:00:00 17.98889 C 81.2882 % 14.74 C
322 02-07-2012 00:00:00 15.24444 C 86.4826 % 13 C
323 03-07-2012 00:00:00 18.02153 C 76.9132 % 13.91 C
324 04-07-2012 00:00:00 19.87465 C 76.5000 % 15.62 C
325 05-07-2012 00:00:00 19.09722 C 91.7153 % 17.72 C
Sensor: Nr:Datum:Temp:Feuchte:Taupunkt:
Aussen-T/F 326 06-07-2012 00:00:00 19.21042 C 82.2708 % 16.11 C
327 07-07-2012 00:00:00 19.57743 C 72.4514 % 14.49 C
328 08-07-2012 00:00:00 17.84097 C 81.3542 % 14.6 C
329 09-07-2012 00:00:00 18.63611 C 72.1944 % 13.53 C
330 10-07-2012 00:00:00 19.1441 C 76.7604 % 14.97 C
331 11-07-2012 00:00:00 16.03394 C 79.6861 % 12.53 C
332 12-07-2012 00:00:00 14.8191 C 77.8715 % 11 C
333 13-07-2012 00:00:00 15.50417 C 89.5694 % 13.8 C
334 14-07-2012 00:00:00 15.27708 C 87.8125 % 13.27 C
335 15-07-2012 00:00:00 14.52014 C 86.8542 % 12.36 C
336 16-07-2012 00:00:00 15.02292 C 79.1840 % 11.45 C
337 17-07-2012 00:00:00 17.55035 C 76.7431 % 13.42 C
338 18-07-2012 00:00:00 19.89649 C 72.5088 % 14.81 C
339 19-07-2012 00:00:00 18.18194 C 70.2743 % 12.68 C
340 20-07-2012 00:00:00 14.85872 C 85.6406 % 12.48 C
341 21-07-2012 00:00:00 15.04167 C 80.6493 % 11.74 C
342 22-07-2012 00:00:00 14.62049 C 74.5139 % 10.15 C
343 23-07-2012 00:00:00 17.15069 C 68.0972 % 11.22 C
344 24-07-2012 00:00:00 19.81701 C 70.4826 % 14.3 C
345 25-07-2012 00:00:00 22.11408 C 72.7218 % 16.99 C
346 26-07-2012 00:00:00 23.10764 C 73.2326 % 18.05 C
347 27-07-2012 00:00:00 22.2566 C 82.8021 % 19.19 C
348 28-07-2012 00:00:00 19.03507 C 92.5660 % 17.8 C
349 29-07-2012 00:00:00 17.61875 C 75.5799 % 13.26 C
350 30-07-2012 00:00:00 16.17396 C 70.1250 % 10.73 C
Sensor: Nr:Datum:Temp:Feuchte:Taupunkt:
Aussen-T/F 351 31-07-2012 00:00:00 16.33993 C 79.2778 % 12.75 C
352 01-08-2012 00:00:00 20.08194 C 75.0521 % 15.52 C
353 02-08-2012 00:00:00 20.75938 C 75.0938 % 16.19 C
354 03-08-2012 00:00:00 19.31771 C 71.6042 % 14.06 C
355 04-08-2012 00:00:00 19.1 C 71.9653 % 13.93 C
356 05-08-2012 00:00:00 19.0875 C 83.3889 % 16.21 C
357 06-08-2012 00:00:00 18.40312 C 78.4965 % 14.6 C
358 07-08-2012 00:00:00 17.15556 C 73.1701 % 12.31 C
359 08-08-2012 00:00:00 16.59132 C 79.3229 % 13 C
360 09-08-2012 00:00:00 18.49479 C 77.0868 % 14.41 C
361 10-08-2012 00:00:00 17.33299 C 71.4028 % 12.11 C
362 11-08-2012 00:00:00 16.29444 C 73.2604 % 11.5 C
363 12-08-2012 00:00:00 17.40486 C 68.6181 % 11.58 C
364 13-08-2012 00:00:00 18.22326 C 73.1944 % 13.35 C
365 14-08-2012 00:00:00 19.78993 C 79.0521 % 16.05 C
366 15-08-2012 00:00:00 22.31354 C 70.9549 % 16.79 C
367 16-08-2012 00:00:00 21.27535 C 67.3125 % 14.97 C
368 17-08-2012 00:00:00 20.12986 C 70.1146 % 14.51 C
369 18-08-2012 00:00:00 23.0066 C 67.4271 % 16.65 C
370 19-08-2012 00:00:00 24.67083 C 69.9722 % 18.82 C
371 20-08-2012 00:00:00 23.43229 C 80.3090 % 19.84 C
372 21-08-2012 00:00:00 22.6875 C 81.6771 % 19.39 C
373 22-08-2012 00:00:00 20.95729 C 64.6042 % 14.04 C
374 23-08-2012 00:00:00 17.78194 C 65.1285 % 11.15 C
375 24-08-2012 00:00:00 18.62842 C 81.4105 % 15.38 C
Sensor: Nr:Datum:Temp:Feuchte:Taupunkt:
Aussen-T/F 376 25-08-2012 00:00:00 18.46493 C 78.6458 % 14.69 C
377 26-08-2012 00:00:00 16.26667 C 78.3021 % 12.49 C
378 27-08-2012 00:00:00 16.32049 C 79.0486 % 12.68 C
379 28-08-2012 00:00:00 18.03507 C 74.6076 % 13.46 C
380 29-08-2012 00:00:00 20.02396 C 77.5486 % 15.98 C
381 30-08-2012 00:00:00 17.48889 C 81.0208 % 14.2 C
382 31-08-2012 00:00:00 13.93646 C 84.9132 % 11.44 C
383 01-09-2012 00:00:00 14.49236 C 76.3785 % 10.39 C
384 02-09-2012 00:00:00 13.96285 C 82.2604 % 10.99 C
385 03-09-2012 00:00:00 16.22222 C 79.7535 % 12.72 C
386 04-09-2012 00:00:00 16.86098 C 82.0105 % 13.77 C
387 05-09-2012 00:00:00 16.4125 C 79.7500 % 12.91 C
388 06-09-2012 00:00:00 14.63604 C 70.9187 % 9.42 C
389 07-09-2012 00:00:00 14.4309 C 73.8368 % 9.83 C
390 08-09-2012 00:00:00 16.83403 C 70.1076 % 11.36 C
391 09-09-2012 00:00:00 18.54722 C 68.1563 % 12.57 C
392 10-09-2012 00:00:00 19.67847 C 67.2465 % 13.44 C
393 11-09-2012 00:00:00 17.74028 C 83.6910 % 14.95 C
394 12-09-2012 00:00:00 11.13646 C 93.3750 % 10.11 C
395 13-09-2012 00:00:00 10.78611 C 90.3368 % 9.27 C
396 14-09-2012 00:00:00 13.01424 C 83.7639 % 10.33 C
397 15-09-2012 00:00:00 13.44514 C 88.4410 % 11.57 C
398 16-09-2012 00:00:00 13.24236 C 85.5903 % 10.88 C
399 17-09-2012 00:00:00 15.15729 C 83.0208 % 12.3 C
400 18-09-2012 00:00:00 14.10868 C 84.2188 % 11.49 C
Sensor: Nr:Datum:Temp:Feuchte:Taupunkt:
Aussen-T/F 401 19-09-2012 00:00:00 11.7684 C 70.2292 % 6.53 C
402 20-09-2012 00:00:00 9.9566 C 72.9271 % 5.33 C
403 21-09-2012 00:00:00 10.62118 C 79.5069 % 7.23 C
404 22-09-2012 00:00:00 11.53611 C 80.2917 % 8.26 C
405 23-09-2012 00:00:00 11.58819 C 78.6007 % 8 C
406 24-09-2012 00:00:00 14.89201 C 84.5486 % 12.31 C
407 25-09-2012 00:00:00 12.86597 C 88.1563 % 10.96 C
408 26-09-2012 00:00:00 12.27917 C 95.0382 % 11.51 C
409 27-09-2012 00:00:00 12.68611 C 88.7257 % 10.88 C
410 28-09-2012 00:00:00 12.56701 C 85.9757 % 10.29 C
411 29-09-2012 00:00:00 11.68819 C 84.0382 % 9.08 C
412 30-09-2012 00:00:00 9.30035 C 89.3681 % 7.64 C
413 01-10-2012 00:00:00 9.46319 C 85.2118 % 7.11 C
414 02-10-2012 00:00:00 12.25764 C 84.6736 % 9.75 C
415 03-10-2012 00:00:00 14.55312 C 82.0139 % 11.52 C
416 04-10-2012 00:00:00 12.89722 C 83.2569 % 10.13 C
417 05-10-2012 00:00:00 13.57986 C 85.1285 % 11.13 C
418 06-10-2012 00:00:00 14.99065 C 84.0244 % 12.32 C
419 07-10-2012 00:00:00 10.63669 C 85.8058 % 8.36 C
420 08-10-2012 00:00:00 8.1958 C 91.4790 % 6.89 C
421 09-10-2012 00:00:00 10.60348 C 82.4776 % 7.75 C
422 10-10-2012 00:00:00 6.21146 C 91.4826 % 4.93 C
423 11-10-2012 00:00:00 6.67361 C 92.2431 % 5.51 C
424 12-10-2012 00:00:00 10.79653 C 89.9479 % 9.22 C
425 13-10-2012 00:00:00 9.08472 C 85.8854 % 6.85 C
Sensor: Nr:Datum:Temp:Feuchte:Taupunkt:
Aussen-T/F 426 14-10-2012 00:00:00 8.15833 C 90.5868 % 6.71 C
427 15-10-2012 00:00:00 7.43264 C 92.8646 % 6.36 C
428 16-10-2012 00:00:00 7.85556 C 89.7188 % 6.27 C
429 17-10-2012 00:00:00 10.85972 C 90.2361 % 9.33 C
430 18-10-2012 00:00:00 14.37569 C 85.3924 % 11.96 C
431 19-10-2012 00:00:00 14.37187 C 89.1111 % 12.6 C
432 20-10-2012 00:00:00 13.74722 C 92.9722 % 12.63 C
433 21-10-2012 00:00:00 13.32917 C 93.7014 % 12.34 C
434 22-10-2012 00:00:00 11.79062 C 93.9931 % 10.86 C
435 23-10-2012 00:00:00 11.38403 C 87.8194 % 9.44 C
436 24-10-2012 00:00:00 9.71528 C 91.8819 % 8.46 C
437 25-10-2012 00:00:00 9.9441 C 92.9271 % 8.85 C
438 26-10-2012 00:00:00 6.73542 C 93.3472 % 5.74 C
439 27-10-2012 00:00:00 2.98993 C 78.3160 % -0.41 C
440 28-10-2012 00:00:00 0.51181 C 90.1007 % -0.92 C
441 29-10-2012 00:00:00 0.69306 C 92.2292 % -0.42 C
442 30-10-2012 00:00:00 6.0566 C 90.8507 % 4.68 C
443 31-10-2012 00:00:00 5.97118 C 91.2778 % 4.66 C
444 01-11-2012 00:00:00 7.64965 C 85.8819 % 5.44 C
445 02-11-2012 00:00:00 7.75417 C 81.4132 % 4.78 C
446 03-11-2012 00:00:00 7.38542 C 94.0104 % 6.49 C
447 04-11-2012 00:00:00 7.74028 C 92.3472 % 6.58 C
448 05-11-2012 00:00:00 8.00382 C 84.4444 % 5.55 C
449 06-11-2012 00:00:00 6.03264 C 87.7708 % 4.16 C
450 07-11-2012 00:00:00 8.52535 C 86.8021 % 6.46 C
Sensor: Nr:Datum:Temp:Feuchte:Taupunkt:
Aussen-T/F 451 08-11-2012 00:00:00 8.82222 C 80.7188 % 5.7 C
452 09-11-2012 00:00:00 8.19861 C 83.9444 % 5.65 C
453 10-11-2012 00:00:00 8.89201 C 93.0243 % 7.83 C
454 11-11-2012 00:00:00 8.24097 C 92.3333 % 7.07 C
455 12-11-2012 00:00:00 5.70868 C 88.6701 % 3.99 C
456 13-11-2012 00:00:00 3.26076 C 94.2639 % 2.43 C
457 14-11-2012 00:00:00 2.60312 C 94.3438 % 1.79 C
458 15-11-2012 00:00:00 4.53958 C 88.2361 % 2.77 C
459 16-11-2012 00:00:00 3.22222 C 87.5313 % 1.36 C
460 17-11-2012 00:00:00 4.33472 C 93.4931 % 3.38 C
461 18-11-2012 00:00:00 7.54896 C 95.9792 % 6.95 C
462 19-11-2012 00:00:00 7.68403 C 95.0035 % 6.94 C
463 20-11-2012 00:00:00 5.27188 C 93.6215 % 4.33 C
464 21-11-2012 00:00:00 4.38681 C 91.7778 % 3.17 C
465 22-11-2012 00:00:00 5.51111 C 94.8819 % 4.76 C
466 23-11-2012 00:00:00 6.88472 C 93.0660 % 5.84 C
467 24-11-2012 00:00:00 9.16042 C 89.4167 % 7.51 C
468 25-11-2012 00:00:00 10.6066 C 72.8889 % 5.95 C
469 26-11-2012 00:00:00 6.01493 C 95.3368 % 5.33 C
470 27-11-2012 00:00:00 7.67986 C 89.1875 % 6.02 C
471 28-11-2012 00:00:00 5.5184 C 91.1563 % 4.19 C
472 29-11-2012 00:00:00 4.01319 C 86.8021 % 2.02 C
473 30-11-2012 00:00:00 1.44375 C 93.9375 % 0.58 C
474 01-12-2012 00:00:00 -0.39861 C 93.9271 % -1.25 C
475 02-12-2012 00:00:00 2.39375 C 89.5035 % 0.85 C
Sensor: Nr:Datum:Temp:Feuchte:Taupunkt:
Aussen-T/F 476 03-12-2012 00:00:00 2.27222 C 89.5486 % 0.74 C
477 04-12-2012 00:00:00 3.75312 C 89.4653 % 2.18 C
478 05-12-2012 00:00:00 2.86667 C 90.6389 % 1.49 C
479 06-12-2012 00:00:00 0.5625 C 84.7813 % -1.7 C
480 07-12-2012 00:00:00 -1.00382 C 91.2500 % -2.25 C
481 08-12-2012 00:00:00 -4.66111 C 93.4826 % -5.55 C
482 09-12-2012 00:00:00 0.22326 C 90.9479 % -1.08 C
483 10-12-2012 00:00:00 2.70764 C 86.9965 % 0.77 C
484 11-12-2012 00:00:00 -0.72396 C 86.9514 % -2.62 C
485 12-12-2012 00:00:00 -3.40937 C 85.1563 % -5.54 C
486 13-12-2012 00:00:00 -3.53646 C 88.4896 % -5.16 C
487 14-12-2012 00:00:00 2.76076 C 92.6389 % 1.69 C
488 15-12-2012 00:00:00 6.97153 C 92.2500 % 5.8 C
489 16-12-2012 00:00:00 6.60868 C 91.0278 % 5.25 C
490 17-12-2012 00:00:00 6.04792 C 93.6910 % 5.11 C
491 18-12-2012 00:00:00 5.04583 C 93.1146 % 4.03 C
492 19-12-2012 00:00:00 3.47361 C 96.2708 % 2.94 C
493 20-12-2012 00:00:00 1.32396 C 93.7708 % 0.43 C
494 21-12-2012 00:00:00 3.19236 C 97.7708 % 2.87 C
495 22-12-2012 00:00:00 6.1691 C 95.2361 % 5.47 C
496 23-12-2012 00:00:00 11.85 C 90.7014 % 10.38 C
497 24-12-2012 00:00:00 11.08715 C 83.9306 % 8.48 C
498 25-12-2012 00:00:00 9.61181 C 81.7431 % 6.65 C
499 26-12-2012 00:00:00 8.15278 C 84.2465 % 5.66 C
500 27-12-2012 00:00:00 7.84757 C 87.0868 % 5.84 C
Sensor: Nr:Datum:Temp:Feuchte:Taupunkt:
Aussen-T/F 501 28-12-2012 00:00:00 6.19479 C 93.6806 % 5.25 C
502 29-12-2012 00:00:00 8.19931 C 92.4514 % 7.05 C
503 30-12-2012 00:00:00 8.44618 C 76.8021 % 4.62 C
504 31-12-2012 00:00:00 8.92569 C 76.6319 % 5.05 C
505 01-01-2013 00:00:00 6.59132 C 85.2465 % 4.3 C
506 02-01-2013 00:00:00 4.69861 C 86.2326 % 2.6 C
507 03-01-2013 00:00:00 7.62951 C 90.5069 % 6.18 C
508 04-01-2013 00:00:00 9.87292 C 91.9063 % 8.62 C
509 05-01-2013 00:00:00 7.8816 C 90.6528 % 6.45 C
510 06-01-2013 00:00:00 8.15069 C 89.3438 % 6.51 C
511 07-01-2013 00:00:00 7.30764 C 88.5938 % 5.55 C
512 08-01-2013 00:00:00 6.15417 C 86.4549 % 4.07 C
513 09-01-2013 00:00:00 4.72465 C 87.9271 % 2.9 C
514 10-01-2013 00:00:00 4.44028 C 90.6840 % 3.05 C
515 11-01-2013 00:00:00 1.09201 C 80.8958 % -1.81 C
516 12-01-2013 00:00:00 -2.64514 C 86.8611 % -4.53 C
517 13-01-2013 00:00:00 -3.28368 C 83.3715 % -5.69 C
518 14-01-2013 00:00:00 -4.44028 C 89.7431 % -5.87 C
519 15-01-2013 00:00:00 -2.1941 C 89.2222 % -3.72 C
520 16-01-2013 00:00:00 -2.65521 C 90.0208 % -4.06 C
521 17-01-2013 00:00:00 -2.48542 C 88.3472 % -4.14 C
522 18-01-2013 00:00:00 -1.70729 C 86.0417 % -3.73 C
523 19-01-2013 00:00:00 -2.39375 C 81.1181 % -5.18 C
524 20-01-2013 00:00:00 -3.06146 C 87.3229 % -4.87 C
525 21-01-2013 00:00:00 -0.75938 C 92.5590 % -1.81 C
Sensor: Nr:Datum:Temp:Feuchte:Taupunkt:
Aussen-T/F 526 22-01-2013 00:00:00 -1.20382 C 91.8194 % -2.36 C
527 23-01-2013 00:00:00 -1.0566 C 91.6736 % -2.24 C
528 24-01-2013 00:00:00 -2.40833 C 86.2639 % -4.38 C
529 25-01-2013 00:00:00 -2.18368 C 84.2292 % -4.48 C
530 26-01-2013 00:00:00 -1.99549 C 84.4306 % -4.26 C
531 27-01-2013 00:00:00 2.22882 C 88.1528 % 0.48 C
532 28-01-2013 00:00:00 3.96389 C 87.7361 % 2.12 C
533 29-01-2013 00:00:00 9.00868 C 87.2743 % 7.01 C
534 30-01-2013 00:00:00 11.32361 C 82.5660 % 8.47 C
535 31-01-2013 00:00:00 7.765 C 75.5864 % 3.73 C
536 01-02-2013 00:00:00 6.26378 C 91.9921 % 5.06 C
537 02-02-2013 00:00:00 3.24097 C 87.7743 % 1.41 C
538 03-02-2013 00:00:00 3.41458 C 84.2292 % 1.01 C
539 04-02-2013 00:00:00 5.84792 C 89.4167 % 4.24 C
540 05-02-2013 00:00:00 4.44583 C 78.9896 % 1.13 C
541 06-02-2013 00:00:00 1.58819 C 91.4306 % 0.35 C
542 07-02-2013 00:00:00 1.88576 C 90.5625 % 0.51 C
543 08-02-2013 00:00:00 0.56424 C 91.6042 % -0.64 C
544 09-02-2013 00:00:00 -0.7941 C 88.5694 % -2.44 C
545 10-02-2013 00:00:00 -1.98681 C 82.7569 % -4.52 C
546 11-02-2013 00:00:00 -0.9316 C 70.8750 % -5.54 C
547 12-02-2013 00:00:00 -0.84618 C 72.2569 % -5.2 C
548 13-02-2013 00:00:00 -0.98125 C 73.6458 % -5.08 C
549 14-02-2013 00:00:00 -2.40382 C 83.6806 % -4.78 C
550 15-02-2013 00:00:00 0.91806 C 93.3993 % -0.02 C
Sensor: Nr:Datum:Temp:Feuchte:Taupunkt:
Aussen-T/F 551 16-02-2013 00:00:00 2.92847 C 95.7014 % 2.31 C
552 17-02-2013 00:00:00 2.97465 C 92.8229 % 1.93 C
553 18-02-2013 00:00:00 0.52847 C 89.7049 % -0.96 C
554 19-02-2013 00:00:00 0.79306 C 91.9375 % -0.36 C
555 20-02-2013 00:00:00 0.4316 C 79.5799 % -2.68 C
556 21-02-2013 00:00:00 -1.21979 C 76.7188 % -4.77 C
557 22-02-2013 00:00:00 -2.3066 C 72.8819 % -6.5 C
558 23-02-2013 00:00:00 -2.80139 C 85.8924 % -4.83 C
559 24-02-2013 00:00:00 -0.43958 C 90.7604 % -1.76 C
560 25-02-2013 00:00:00 0.88785 C 95.9375 % 0.32 C
561 26-02-2013 00:00:00 2.31215 C 94.4792 % 1.52 C
562 27-02-2013 00:00:00 1.69271 C 89.6667 % 0.18 C
563 28-02-2013 00:00:00 2.41771 C 88.3368 % 0.69 C
564 01-03-2013 00:00:00 2.75278 C 82.7014 % 0.11 C
565 02-03-2013 00:00:00 2.60208 C 75.2674 % -1.32 C
566 03-03-2013 00:00:00 1.90104 C 84.2535 % -0.47 C
567 04-03-2013 00:00:00 1.8934 C 82.4444 % -0.77 C
568 05-03-2013 00:00:00 2.56979 C 83.8611 % 0.12 C
569 06-03-2013 00:00:00 5.45035 C 78.0139 % 1.93 C
570 07-03-2013 00:00:00 8.96146 C 79.3646 % 5.59 C
571 08-03-2013 00:00:00 10.92049 C 83.9063 % 8.31 C
572 09-03-2013 00:00:00 10.42118 C 84.5660 % 7.94 C
573 10-03-2013 00:00:00 3.88611 C 90.5799 % 2.49 C
574 11-03-2013 00:00:00 -0.5191 C 89.0764 % -2.09 C
575 12-03-2013 00:00:00 -2.72153 C 90.2674 % -4.09 C
Sensor: Nr:Datum:Temp:Feuchte:Taupunkt:
Aussen-T/F 576 13-03-2013 00:00:00 -2.95907 C 81.1566 % -5.73 C
577 14-03-2013 00:00:00 -1.88944 C 86.0493 % -3.91 C
578 15-03-2013 00:00:00 -2.50139 C 79.4063 % -5.57 C
579 16-03-2013 00:00:00 2.40938 C 66.0729 % -3.26 C
580 17-03-2013 00:00:00 3.22014 C 86.2431 % 1.15 C
581 18-03-2013 00:00:00 4.14479 C 82.4410 % 1.43 C
582 19-03-2013 00:00:00 4.10313 C 82.7500 % 1.44 C
583 20-03-2013 00:00:00 3.59201 C 90.7639 % 2.23 C
584 21-03-2013 00:00:00 1.33993 C 86.7153 % -0.62 C
585 22-03-2013 00:00:00 1.7441 C 78.1840 % -1.64 C
586 23-03-2013 00:00:00 1.46875 C 67.2951 % -3.92 C
587 24-03-2013 00:00:00 0.48854 C 50.8924 % -8.48 C
588 25-03-2013 00:00:00 0.18681 C 56.3854 % -7.45 C
589 26-03-2013 00:00:00 0.3309 C 54.9167 % -7.65 C
590 27-03-2013 00:00:00 1.19896 C 57.4340 % -6.26 C
591 28-03-2013 00:00:00 2.07639 C 68.6563 % -3.07 C
592 29-03-2013 00:00:00 0.53715 C 86.8750 % -1.39 C
593 30-03-2013 00:00:00 1.50903 C 75.2361 % -2.39 C
594 31-03-2013 00:00:00 1.17246 C 77.9094 % -2.24 C
595 01-04-2013 00:00:00 1.44201 C 69.0382 % -3.6 C
596 02-04-2013 00:00:00 2.12708 C 62.2396 % -4.33 C
597 03-04-2013 00:00:00 1.88194 C 70.0521 % -2.99 C
598 04-04-2013 00:00:00 3.97465 C 65.6701 % -1.85 C
599 05-04-2013 00:00:00 2.45382 C 75.3299 % -1.46 C
600 06-04-2013 00:00:00 3.55104 C 83.4028 % 1.01 C
Sensor: Nr:Datum:Temp:Feuchte:Taupunkt:
Aussen-T/F 601 07-04-2013 00:00:00 3.40382 C 71.6181 % -1.23 C
602 08-04-2013 00:00:00 4.46979 C 71.6076 % -0.2 C
603 09-04-2013 00:00:00 5.89479 C 88.8681 % 4.2 C
604 10-04-2013 00:00:00 8.34653 C 86.5139 % 6.23 C
605 11-04-2013 00:00:00 12.25972 C 76.2674 % 8.21 C
606 12-04-2013 00:00:00 10.42708 C 83.9722 % 7.84 C
607 13-04-2013 00:00:00 11.30243 C 70.4826 % 6.14 C
608 14-04-2013 00:00:00 15.49271 C 69.5903 % 9.96 C
609 15-04-2013 00:00:00 15.52118 C 73.4931 % 10.81 C
610 16-04-2013 00:00:00 16.01215 C 73.3854 % 11.26 C
611 17-04-2013 00:00:00 17.14167 C 64.9028 % 10.49 C
612 18-04-2013 00:00:00 15.57153 C 62.1528 % 8.36 C
613 19-04-2013 00:00:00 11.46389 C 56.8333 % 3.21 C
614 20-04-2013 00:00:00 10.16944 C 61.6736 % 3.15 C
615 21-04-2013 00:00:00 10.71389 C 59.7014 % 3.21 C
616 22-04-2013 00:00:00 12.26562 C 60.0069 % 4.74 C
617 23-04-2013 00:00:00 12.48924 C 62.8681 % 5.62 C
618 24-04-2013 00:00:00 14.60278 C 69.3472 % 9.06 C
619 25-04-2013 00:00:00 17.28958 C 64.4965 % 10.54 C
620 26-04-2013 00:00:00 12.59896 C 84.6528 % 10.09 C
621 27-04-2013 00:00:00 6.70972 C 88.6111 % 4.97 C
622 28-04-2013 00:00:00 7.57118 C 83.3438 % 4.93 C
623 29-04-2013 00:00:00 11.20139 C 67.0556 % 5.32 C
624 30-04-2013 00:00:00 9.40104 C 78.5139 % 5.86 C
625 01-05-2013 00:00:00 12.25 C 80.0972 % 8.92 C
Sensor: Nr:Datum:Temp:Feuchte:Taupunkt:
Aussen-T/F 626 02-05-2013 00:00:00 15.26458 C 71.7535 % 10.2 C
627 03-05-2013 00:00:00 14.28056 C 76.8472 % 10.28 C
628 04-05-2013 00:00:00 15.30521 C 68.4132 % 9.53 C
629 05-05-2013 00:00:00 14.71458 C 67.0556 % 8.67 C
630 06-05-2013 00:00:00 15.4691 C 70.1458 % 10.06 C
631 07-05-2013 00:00:00 14.47708 C 86.2465 % 12.21 C
632 08-05-2013 00:00:00 15.69062 C 80.7188 % 12.39 C
633 09-05-2013 00:00:00 16.1566 C 79.2674 % 12.57 C
634 10-05-2013 00:00:00 13.28785 C 70.3924 % 8.02 C
635 11-05-2013 00:00:00 12.72431 C 79.9549 % 9.36 C
636 12-05-2013 00:00:00 9.44583 C 87.2049 % 7.43 C
637 13-05-2013 00:00:00 11.19688 C 87.3056 % 9.17 C
638 14-05-2013 00:00:00 12.63125 C 81.3576 % 9.53 C
639 15-05-2013 00:00:00 13.05694 C 84.4688 % 10.5 C
640 16-05-2013 00:00:00 13.25521 C 93.0174 % 12.15 C
641 17-05-2013 00:00:00 10.33125 C 94.0278 % 9.41 C
642 18-05-2013 00:00:00 13.12118 C 83.2813 % 10.35 C
643 19-05-2013 00:00:00 13.29792 C 84.1910 % 10.69 C
644 20-05-2013 00:00:00 10.92014 C 91.6771 % 9.62 C
645 21-05-2013 00:00:00 12.35104 C 85.9826 % 10.08 C
646 22-05-2013 00:00:00 9.34444 C 87.3438 % 7.35 C
647 23-05-2013 00:00:00 7.90764 C 85.7535 % 5.67 C
648 24-05-2013 00:00:00 7.60521 C 78.8576 % 4.18 C
649 25-05-2013 00:00:00 8.39687 C 79.6493 % 5.09 C
650 26-05-2013 00:00:00 8.03611 C 93.6493 % 7.08 C
Sensor: Nr:Datum:Temp:Feuchte:Taupunkt:
Aussen-T/F 651 27-05-2013 00:00:00 12.39201 C 76.8368 % 8.45 C
652 28-05-2013 00:00:00 13.87465 C 75.0903 % 9.54 C
653 29-05-2013 00:00:00 10.21285 C 92.6875 % 9.08 C
654 30-05-2013 00:00:00 11.70208 C 80.4896 % 8.46 C
655 31-05-2013 00:00:00 13.19792 C 90.3090 % 11.65 C
656 01-06-2013 00:00:00 12.09549 C 87.9410 % 10.16 C
657 02-06-2013 00:00:00 13.08125 C 66.3472 % 6.96 C
658 03-06-2013 00:00:00 12.7375 C 64.3750 % 6.19 C
659 04-06-2013 00:00:00 13.85833 C 72.3507 % 8.97 C
660 05-06-2013 00:00:00 16.28889 C 78.3125 % 12.51 C
661 06-06-2013 00:00:00 18.00868 C 68.3264 % 12.09 C
662 07-06-2013 00:00:00 18.14826 C 71.4236 % 12.9 C
663 08-06-2013 00:00:00 18.53125 C 79.0556 % 14.83 C
664 09-06-2013 00:00:00 15.18819 C 89.5868 % 13.49 C
665 10-06-2013 00:00:00 12.77396 C 94.5868 % 11.93 C
666 11-06-2013 00:00:00 15.40451 C 84.7708 % 12.86 C
667 12-06-2013 00:00:00 17.48576 C 83.4236 % 14.65 C
668 13-06-2013 00:00:00 18.45313 C 85.0625 % 15.9 C
669 14-06-2013 00:00:00 14.47917 C 78.2500 % 10.74 C
670 15-06-2013 00:00:00 15.22674 C 77.9653 % 11.41 C
671 16-06-2013 00:00:00 16.60104 C 70.9306 % 11.31 C
672 17-06-2013 00:00:00 20.99236 C 73.9583 % 16.17 C
673 18-06-2013 00:00:00 23.88576 C 78.5104 % 19.92 C
674 19-06-2013 00:00:00 24.9691 C 80.3924 % 21.36 C
675 20-06-2013 00:00:00 21.63299 C 83.6493 % 18.74 C
Sensor: Nr:Datum:Temp:Feuchte:Taupunkt:
Aussen-T/F 676 21-06-2013 00:00:00 17.72778 C 79.6563 % 14.17 C
677 22-06-2013 00:00:00 18.08576 C 74.9688 % 13.58 C
678 23-06-2013 00:00:00 16.03403 C 77.5938 % 12.12 C
679 24-06-2013 00:00:00 14.4184 C 80.7326 % 11.15 C
680 25-06-2013 00:00:00 13.24861 C 81.2049 % 10.1 C
681 26-06-2013 00:00:00 12.21597 C 78.8819 % 8.66 C
682 27-06-2013 00:00:00 12.77257 C 85.6111 % 10.42 C
683 28-06-2013 00:00:00 12.51979 C 89.5764 % 10.85 C
684 29-06-2013 00:00:00 15.31319 C 83.5000 % 12.54 C
685 30-06-2013 00:00:00 14.36458 C 77.9931 % 10.58 C
686 01-07-2013 00:00:00 18.46319 C 74.8715 % 13.93 C
687 02-07-2013 00:00:00 18.88542 C 76.4132 % 14.65 C
688 03-07-2013 00:00:00 17.18993 C 93.0868 % 16.06 C
689 04-07-2013 00:00:00 18.03542 C 87.4410 % 15.92 C
690 05-07-2013 00:00:00 19.17361 C 80.8785 % 15.81 C
691 06-07-2013 00:00:00 19.30833 C 81.3438 % 16.03 C
692 07-07-2013 00:00:00 20.55243 C 74.5069 % 15.86 C
693 08-07-2013 00:00:00 20.53924 C 71.9444 % 15.31 C
694 09-07-2013 00:00:00 20.80694 C 73.6597 % 15.93 C
695 10-07-2013 00:00:00 20.12292 C 72.3368 % 14.99 C
696 11-07-2013 00:00:00 17.10417 C 69.4097 % 11.47 C
697 12-07-2013 00:00:00 16.90868 C 73.6806 % 12.18 C
698 13-07-2013 00:00:00 17.26424 C 74.3160 % 12.66 C
699 14-07-2013 00:00:00 18.30139 C 74.2847 % 13.65 C
700 15-07-2013 00:00:00 18.85486 C 75.3333 % 14.4 C
Sensor: Nr:Datum:Temp:Feuchte:Taupunkt:
Aussen-T/F 701 16-07-2013 00:00:00 20.18438 C 72.0590 % 14.99 C
702 17-07-2013 00:00:00 20.29896 C 74.5729 % 15.63 C
703 18-07-2013 00:00:00 21.84757 C 69.7014 % 16.06 C
704 19-07-2013 00:00:00 22.12674 C 67.1042 % 15.74 C
705 20-07-2013 00:00:00 21.31076 C 69.5417 % 15.52 C
706 21-07-2013 00:00:00 22.30521 C 69.0000 % 16.34 C
707 22-07-2013 00:00:00 22.41562 C 70.3958 % 16.76 C
708 23-07-2013 00:00:00 21.37396 C 86.5069 % 19.03 C
709 24-07-2013 00:00:00 21.35972 C 80.1076 % 17.79 C
710 25-07-2013 00:00:00 20.88542 C 86.3472 % 18.52 C
711 26-07-2013 00:00:00 21.25729 C 95.1007 % 20.44 C
712 27-07-2013 00:00:00 23.54236 C 84.8646 % 20.85 C
713 28-07-2013 00:00:00 21.69965 C 82.3889 % 18.57 C
714 29-07-2013 00:00:00 19.41007 C 88.3993 % 17.44 C
715 30-07-2013 00:00:00 18.99028 C 79.0139 % 15.27 C
716 31-07-2013 00:00:00 20.83715 C 75.4653 % 16.34 C
717 01-08-2013 00:00:00 21.89653 C 75.0764 % 17.28 C
718 02-08-2013 00:00:00 23.37049 C 72.4132 % 18.13 C
719 03-08-2013 00:00:00 21.1934 C 85.6146 % 18.69 C
720 04-08-2013 00:00:00 19.79549 C 78.0382 % 15.86 C
721 05-08-2013 00:00:00 20.42639 C 78.9618 % 16.65 C
722 06-08-2013 00:00:00 19.98646 C 87.9132 % 17.92 C
723 07-08-2013 00:00:00 18.91562 C 91.5833 % 17.51 C
724 08-08-2013 00:00:00 16.92118 C 86.3229 % 14.62 C
725 09-08-2013 00:00:00 16.41597 C 86.1181 % 14.09 C
Sensor: Nr:Datum:Temp:Feuchte:Taupunkt:
Aussen-T/F 726 10-08-2013 00:00:00 18.10764 C 74.2986 % 13.46 C
727 11-08-2013 00:00:00 16.80278 C 69.1771 % 11.13 C
728 12-08-2013 00:00:00 15.88229 C 83.6007 % 13.11 C
729 13-08-2013 00:00:00 15.61319 C 81.7326 % 12.5 C
730 14-08-2013 00:00:00 14.4559 C 81.5660 % 11.34 C
731 15-08-2013 00:00:00 16.30035 C 77.9028 % 12.44 C
732 16-08-2013 00:00:00 17.96319 C 75.3750 % 13.55 C
733 17-08-2013 00:00:00 20.47965 C 70.5158 % 14.94 C
734 18-08-2013 00:00:00 19.29614 C 82.4596 % 16.23 C
735 19-08-2013 00:00:00 17.75764 C 80.2465 % 14.31 C
736 20-08-2013 00:00:00 14.96458 C 79.6111 % 11.47 C
737 21-08-2013 00:00:00 15.16285 C 81.7743 % 12.07 C
738 22-08-2013 00:00:00 16.33576 C 83.6111 % 13.56 C
739 23-08-2013 00:00:00 18.61667 C 76.7708 % 14.46 C
740 24-08-2013 00:00:00 16.10208 C 89.7396 % 14.42 C
741 25-08-2013 00:00:00 16.06806 C 95.2708 % 15.31 C
742 26-08-2013 00:00:00 15.16806 C 96.5451 % 14.62 C
743 27-08-2013 00:00:00 15.88472 C 89.9792 % 14.24 C
744 28-08-2013 00:00:00 15.65312 C 87.5035 % 13.59 C
745 29-08-2013 00:00:00 14.74062 C 90.2153 % 13.15 C
746 30-08-2013 00:00:00 15.73924 C 87.8472 % 13.73 C
747 31-08-2013 00:00:00 16.33229 C 86.2986 % 14.04 C
748 01-09-2013 00:00:00 14.50938 C 73.5035 % 9.83 C
749 02-09-2013 00:00:00 17.48924 C 69.9375 % 11.95 C
750 03-09-2013 00:00:00 18.08299 C 80.6319 % 14.7 C
Sensor: Nr:Datum:Temp:Feuchte:Taupunkt:
Aussen-T/F 751 04-09-2013 00:00:00 17.74583 C 85.1701 % 15.22 C
752 05-09-2013 00:00:00 18.47349 C 84.5181 % 15.82 C
753 06-09-2013 00:00:00 22.68615 C 74.2769 % 17.87 C
754 07-09-2013 00:00:00 18.36354 C 91.5208 % 16.96 C
755 08-09-2013 00:00:00 14.78542 C 93.9097 % 13.81 C
756 09-09-2013 00:00:00 14.16944 C 86.9965 % 12.04 C
757 10-09-2013 00:00:00 13.35073 C 82.4891 % 10.43 C
758 11-09-2013 00:00:00 13.00912 C 87.8066 % 11.04 C
759 12-09-2013 00:00:00 13.53472 C 92.7535 % 12.39 C
760 13-09-2013 00:00:00 14.67363 C 88.3553 % 12.77 C
761 14-09-2013 00:00:00 15.8191 C 93.1007 % 14.71 C
762 15-09-2013 00:00:00 14.41667 C 87.2500 % 12.33 C
763 16-09-2013 00:00:00 13.23333 C 81.3229 % 10.11 C
764 17-09-2013 00:00:00 10.58958 C 82.5833 % 7.75 C
765 18-09-2013 00:00:00 12.57951 C 92.8750 % 11.46 C
766 19-09-2013 00:00:00 11.89444 C 86.6076 % 9.73 C
767 20-09-2013 00:00:00 13.91806 C 85.7778 % 11.58 C
768 21-09-2013 00:00:00 12.20868 C 91.0000 % 10.78 C
769 22-09-2013 00:00:00 13.3788 C 90.7668 % 11.9 C
770 23-09-2013 00:00:00 15.46493 C 89.1076 % 13.68 C
771 24-09-2013 00:00:00 12.34792 C 94.6979 % 11.52 C
772 25-09-2013 00:00:00 14.08646 C 94.5347 % 13.22 C
773 26-09-2013 00:00:00 14.58924 C 91.1389 % 13.16 C
774 27-09-2013 00:00:00 11.25312 C 89.0660 % 9.52 C
775 28-09-2013 00:00:00 10.575 C 88.4286 % 8.74 C
Sensor: Nr:Datum:Temp:Feuchte:Taupunkt:
Aussen-T/F 776 29-09-2013 00:00:00 11.89028 C 85.1667 % 9.48 C
777 30-09-2013 00:00:00 9.80833 C 87.1910 % 7.78 C
778 01-10-2013 00:00:00 11.38264 C 80.5903 % 8.17 C
779 02-10-2013 00:00:00 9.01493 C 82.1111 % 6.13 C
780 03-10-2013 00:00:00 8.84479 C 80.9549 % 5.76 C
781 04-10-2013 00:00:00 11.33993 C 91.6215 % 10.03 C
782 05-10-2013 00:00:00 12.69583 C 97.5486 % 12.32 C
783 06-10-2013 00:00:00 13.60313 C 92.6910 % 12.44 C
784 07-10-2013 00:00:00 13.21667 C 94.6806 % 12.38 C
785 08-10-2013 00:00:00 13.44791 C 95.3505 % 12.72 C
786 09-10-2013 00:00:00 13.86667 C 91.5938 % 12.52 C
787 10-10-2013 00:00:00 8.4625 C 94.6285 % 7.65 C
788 11-10-2013 00:00:00 6.86042 C 97.1285 % 6.44 C
789 12-10-2013 00:00:00 6.31215 C 95.1910 % 5.6 C
790 13-10-2013 00:00:00 7.69167 C 90.0208 % 6.16 C
791 14-10-2013 00:00:00 9.89091 C 92.2182 % 8.69 C
792 15-10-2013 00:00:00 10.43275 C 94.2113 % 9.54 C
793 16-10-2013 00:00:00 10.04523 C 95.8799 % 9.42 C
794 17-10-2013 00:00:00 12.70972 C 88.6771 % 10.89 C
795 18-10-2013 00:00:00 11.80868 C 95.7083 % 11.15 C
796 19-10-2013 00:00:00 11.72702 C 95.4877 % 11.03 C
797 20-10-2013 00:00:00 15.28507 C 93.8021 % 14.29 C
798 21-10-2013 00:00:00 15.075 C 89.9861 % 13.45 C
799 22-10-2013 00:00:00 15.7614 C 91.7404 % 14.42 C
800 23-10-2013 00:00:00 15.81476 C 92.6790 % 14.63 C
Sensor: Nr:Datum:Temp:Feuchte:Taupunkt:
Aussen-T/F 801 24-10-2013 00:00:00 13.67431 C 95.5069 % 12.97 C
802 25-10-2013 00:00:00 13.01701 C 96.8958 % 12.54 C
803 26-10-2013 00:00:00 16.41144 C 95.1808 % 15.64 C
804 27-10-2013 00:00:00 14.94896 C 83.9028 % 12.25 C
805 28-10-2013 00:00:00 15.40962 C 78.1385 % 11.62 C
806 29-10-2013 00:00:00 11.12569 C 77.4901 % 7.34 C
807 30-10-2013 00:00:00 7.81825 C 86.6702 % 5.74 C
808 31-10-2013 00:00:00 5.27708 C 94.3854 % 4.45 C
809 01-11-2013 00:00:00 9.4316 C 89.5208 % 7.8 C
810 02-11-2013 00:00:00 12.79889 C 90.4354 % 11.27 C
811 03-11-2013 00:00:00 9.93611 C 83.6701 % 7.31 C
812 04-11-2013 00:00:00 9.80526 C 87.0912 % 7.76 C
813 05-11-2013 00:00:00 6.72153 C 87.5556 % 4.81 C
814 06-11-2013 00:00:00 10.70215 C 88.7348 % 8.92 C
815 07-11-2013 00:00:00 15.04132 C 84.5243 % 12.46 C
816 08-11-2013 00:00:00 11.92093 C 93.0372 % 10.83 C
817 09-11-2013 00:00:00 9.48785 C 80.9931 % 6.39 C
818 10-11-2013 00:00:00 6.68715 C 90.9653 % 5.32 C
819 11-11-2013 00:00:00 4.00764 C 96.3542 % 3.48 C
820 12-11-2013 00:00:00 4.41146 C 93.7951 % 3.5 C
821 13-11-2013 00:00:00 6.28491 C 93.5579 % 5.32 C
822 14-11-2013 00:00:00 3.2816 C 95.0833 % 2.57 C
823 15-11-2013 00:00:00 4.99201 C 90.5035 % 3.57 C
824 16-11-2013 00:00:00 3.05 C 91.8507 % 1.86 C
825 17-11-2013 00:00:00 3.2184 C 94.6285 % 2.44 C
Sensor: Nr:Datum:Temp:Feuchte:Taupunkt:
Aussen-T/F 826 18-11-2013 00:00:00 5.38287 C 94.0916 % 4.51 C
827 19-11-2013 00:00:00 6.22 C 91.5647 % 4.95 C
828 20-11-2013 00:00:00 3.96643 C 91.7483 % 2.75 C
829 21-11-2013 00:00:00 4.05603 C 89.4310 % 2.48 C
830 22-11-2013 00:00:00 4.42 C 86.5545 % 2.38 C
831 23-11-2013 00:00:00 7.03092 C 87.0000 % 5.02 C
832 24-11-2013 00:00:00 5.71435 C 88.4739 % 3.96 C
833 25-11-2013 00:00:00 2.65439 C 93.3216 % 1.69 C
834 26-11-2013 00:00:00 0.53125 C 94.5590 % -0.24 C
835 27-11-2013 00:00:00 0.63854 C 92.5035 % -0.43 C
836 28-11-2013 00:00:00 3.45709 C 94.3022 % 2.63 C
837 29-11-2013 00:00:00 5.6434 C 91.5833 % 4.38 C
838 30-11-2013 00:00:00 4.32604 C 93.7951 % 3.42 C
839 01-12-2013 00:00:00 5.01254 C 94.7178 % 4.24 C
840 02-12-2013 00:00:00 4.76458 C 93.0486 % 3.74 C
841 03-12-2013 00:00:00 -0.45729 C 97.1806 % -0.85 C
842 04-12-2013 00:00:00 3.27917 C 91.8924 % 2.09 C
843 05-12-2013 00:00:00 3.93475 C 87.9291 % 2.12 C
844 06-12-2013 00:00:00 3.76181 C 74.9583 % -0.26 C
845 07-12-2013 00:00:00 4.38715 C 85.8194 % 2.23 C
846 08-12-2013 00:00:00 6.92188 C 87.3785 % 4.97 C
847 09-12-2013 00:00:00 6.42222 C 84.1806 % 3.95 C
848 10-12-2013 00:00:00 3.24896 C 95.9236 % 2.66 C
849 11-12-2013 00:00:00 3.72465 C 96.5903 % 3.23 C
850 12-12-2013 00:00:00 4.08993 C 92.2118 % 2.94 C
Sensor: Nr:Datum:Temp:Feuchte:Taupunkt:
Aussen-T/F 851 13-12-2013 00:00:00 2.65694 C 90.5313 % 1.27 C
852 14-12-2013 00:00:00 3.58986 C 92.6923 % 2.52 C
853 15-12-2013 00:00:00 4.99688 C 85.9340 % 2.84 C
854 16-12-2013 00:00:00 1.49676 C 94.6511 % 0.73 C
855 17-12-2013 00:00:00 1.25451 C 95.3924 % 0.6 C
856 18-12-2013 00:00:00 4.19965 C 94.2153 % 3.35 C
857 19-12-2013 00:00:00 8.13715 C 88.2813 % 6.32 C
858 20-12-2013 00:00:00 4.38403 C 92.2708 % 3.24 C
859 21-12-2013 00:00:00 4.81354 C 81.8229 % 1.98 C
860 22-12-2013 00:00:00 8.81493 C 82.7222 % 6.04 C
861 23-12-2013 00:00:00 8.42341 C 85.6230 % 6.16 C
862 24-12-2013 00:00:00 11.57579 C 73.6140 % 7.03 C
863 25-12-2013 00:00:00 8.41944 C 92.4444 % 7.27 C
864 26-12-2013 00:00:00 6.06579 C 94.8195 % 5.3 C
865 27-12-2013 00:00:00 6.6549 C 85.1608 % 4.34 C
866 28-12-2013 00:00:00 9.14444 C 90.1181 % 7.61 C
867 29-12-2013 00:00:00 4.76463 C 93.9695 % 3.88 C
868 30-12-2013 00:00:00 4.17107 C 89.7934 % 2.65 C
869 31-12-2013 00:00:00 2.91045 C 89.5522 % 1.37 C
870 01-01-2014 00:00:00 6.46912 C 86.4737 % 4.38 C
871 02-01-2014 00:00:00 8.31947 C 88.5649 % 6.54 C
872 03-01-2014 00:00:00 8.74861 C 86.5347 % 6.63 C
873 04-01-2014 00:00:00 7.47049 C 88.5833 % 5.71 C
874 05-01-2014 00:00:00 6.13111 C 91.4622 % 4.85 C
875 06-01-2014 00:00:00 8.33819 C 89.1736 % 6.66 C
Sensor: Nr:Datum:Temp:Feuchte:Taupunkt:
Aussen-T/F 876 07-01-2014 00:00:00 10.72882 C 85.7708 % 8.45 C
877 08-01-2014 00:00:00 10.3965 C 86.9027 % 8.31 C
878 09-01-2014 00:00:00 9.27876 C 85.9961 % 7.06 C
879 10-01-2014 00:00:00 5.59896 C 86.9757 % 3.61 C
880 11-01-2014 00:00:00 3.80382 C 93.2049 % 2.81 C
881 12-01-2014 00:00:00 0.34545 C 97.0618 % -0.06 C
882 13-01-2014 00:00:00 3.73194 C 95.9965 % 3.15 C
883 14-01-2014 00:00:00 5.06036 C 94.4536 % 4.25 C
884 15-01-2014 00:00:00 4.1934 C 91.9444 % 3 C
885 16-01-2014 00:00:00 6.5375 C 93.3160 % 5.54 C
886 17-01-2014 00:00:00 6.75 C 92.8021 % 5.67 C
887 18-01-2014 00:00:00 4.5321 C 90.4686 % 3.11 C
888 19-01-2014 00:00:00 4.621 C 92.0569 % 3.44 C
889 20-01-2014 00:00:00 4.32836 C 94.6567 % 3.55 C
890 21-01-2014 00:00:00 3.49792 C 93.6632 % 2.58 C
891 22-01-2014 00:00:00 3.18571 C 95.3022 % 2.51 C
892 23-01-2014 00:00:00 3.72927 C 92.3049 % 2.6 C
893 24-01-2014 00:00:00 3.90268 C 93.5670 % 2.96 C
894 25-01-2014 00:00:00 2.8165 C 94.8000 % 2.07 C
895 26-01-2014 00:00:00 5.11851 C 83.3630 % 2.54 C
896 27-01-2014 00:00:00 4.4199 C 87.2094 % 2.48 C
897 28-01-2014 00:00:00 2.36869 C 88.8889 % 0.73 C
898 29-01-2014 00:00:00 1.54036 C 85.8253 % -0.57 C
899 30-01-2014 00:00:00 1.98611 C 84.2049 % -0.39 C
900 31-01-2014 00:00:00 1.03819 C 91.0799 % -0.25 C
Sensor: Nr:Datum:Temp:Feuchte:Taupunkt:
Aussen-T/F 901 01-02-2014 00:00:00 4.63819 C 89.8646 % 3.12 C
902 02-02-2014 00:00:00 4.14306 C 90.0729 % 2.66 C
903 03-02-2014 00:00:00 1.00938 C 95.5486 % 0.38 C
904 04-02-2014 00:00:00 4.28785 C 89.7083 % 2.75 C
905 05-02-2014 00:00:00 4.74236 C 89.7049 % 3.2 C
906 06-02-2014 00:00:00 8.42431 C 76.6181 % 4.56 C
907 07-02-2014 00:00:00 8.79132 C 78.4410 % 5.25 C
908 08-02-2014 00:00:00 6.5309 C 83.7222 % 3.98 C
909 09-02-2014 00:00:00 5.34375 C 80.9306 % 2.34 C
910 10-02-2014 00:00:00 3.38819 C 87.2500 % 1.48 C
911 11-02-2014 00:00:00 5.41354 C 82.3819 % 2.66 C
912 12-02-2014 00:00:00 5.44028 C 81.1319 % 2.47 C
913 13-02-2014 00:00:00 5.71771 C 88.4479 % 3.96 C
914 14-02-2014 00:00:00 5.64722 C 85.6979 % 3.44 C
915 15-02-2014 00:00:00 9.70669 C 79.3415 % 6.31 C
916 16-02-2014 00:00:00 7.36493 C 80.5694 % 4.25 C
917 17-02-2014 00:00:00 3.59861 C 91.7118 % 2.38 C
918 18-02-2014 00:00:00 3.38715 C 94.0590 % 2.52 C
919 19-02-2014 00:00:00 7.825 C 84.9722 % 5.46 C
920 20-02-2014 00:00:00 8.68958 C 82.6215 % 5.9 C
921 21-02-2014 00:00:00 7.64062 C 84.5451 % 5.21 C
922 22-02-2014 00:00:00 4.99861 C 87.1563 % 3.05 C
923 23-02-2014 00:00:00 5.94204 C 83.6694 % 3.39 C
924 24-02-2014 00:00:00 5.86389 C 80.9444 % 2.85 C
925 25-02-2014 00:00:00 6.68681 C 82.1910 % 3.87 C
Sensor: Nr:Datum:Temp:Feuchte:Taupunkt:
Aussen-T/F 926 26-02-2014 00:00:00 8.58182 C 81.5382 % 5.61 C
927 27-02-2014 00:00:00 5.86275 C 84.1961 % 3.41 C
928 28-02-2014 00:00:00 6.2146 C 87.8248 % 4.35 C
929 01-03-2014 00:00:00 5.44375 C 88.4410 % 3.69 C
930 02-03-2014 00:00:00 3.55069 C 87.5208 % 1.68 C
931 03-03-2014 00:00:00 5.27743 C 86.6458 % 3.24 C
932 04-03-2014 00:00:00 4.21701 C 86.7118 % 2.2 C
933 05-03-2014 00:00:00 4.68235 C 86.5059 % 2.63 C
934 06-03-2014 00:00:00 3.87951 C 89.4306 % 2.3 C
935 07-03-2014 00:00:00 6.23037 C 80.7383 % 3.17 C
936 08-03-2014 00:00:00 7.3847 C 80.0427 % 4.18 C
937 09-03-2014 00:00:00 7.27263 C 76.4772 % 3.42 C
938 10-03-2014 00:00:00 7.44444 C 75.5035 % 3.41 C
939 11-03-2014 00:00:00 8.4184 C 78.6424 % 4.93 C
940 12-03-2014 00:00:00 9.07812 C 74.1354 % 4.72 C
941 13-03-2014 00:00:00 8.16007 C 73.3681 % 3.69 C
942 14-03-2014 00:00:00 7.91944 C 76.8993 % 4.12 C
943 15-03-2014 00:00:00 8.97326 C 77.3021 % 5.22 C
944 16-03-2014 00:00:00 11.50486 C 77.2500 % 7.67 C
945 17-03-2014 00:00:00 10.27882 C 81.5486 % 7.27 C
946 18-03-2014 00:00:00 9.4066 C 83.2882 % 6.72 C
947 19-03-2014 00:00:00 12.2875 C 70.5521 % 7.1 C
948 20-03-2014 00:00:00 12.49333 C 67.2772 % 6.6 C
949 21-03-2014 00:00:00 13.1375 C 66.5069 % 7.05 C
950 22-03-2014 00:00:00 8.65208 C 83.0799 % 5.95 C
Sensor: Nr:Datum:Temp:Feuchte:Taupunkt:
Aussen-T/F 951 23-03-2014 00:00:00 6.03507 C 81.4861 % 3.11 C
952 24-03-2014 00:00:00 5.42632 C 80.7404 % 2.39 C
953 25-03-2014 00:00:00 4.1625 C 82.4271 % 1.44 C
954 26-03-2014 00:00:00 4.56076 C 78.8125 % 1.21 C
955 27-03-2014 00:00:00 8.14604 C 73.6475 % 3.73 C
956 28-03-2014 00:00:00 10.60972 C 66.4167 % 4.62 C
957 29-03-2014 00:00:00 10.34963 C 70.5809 % 5.24 C
958 30-03-2014 00:00:00 9.15619 C 76.1429 % 5.18 C
959 31-03-2014 00:00:00 12.96562 C 65.8924 % 6.75 C
960 01-04-2014 00:00:00 13.77519 C 67.7366 % 7.92 C
961 02-04-2014 00:00:00 13.90458 C 68.9754 % 8.31 C
962 03-04-2014 00:00:00 12.54324 C 77.5811 % 8.74 C
963 04-04-2014 00:00:00 14.95971 C 74.9173 % 10.55 C
964 05-04-2014 00:00:00 13.00531 C 86.2612 % 10.77 C
965 06-04-2014 00:00:00 11.67782 C 83.0879 % 8.91 C
966 07-04-2014 00:00:00 15.95041 C 75.4713 % 11.62 C
967 08-04-2014 00:00:00 12.18521 C 67.1585 % 6.28 C
968 09-04-2014 00:00:00 9.27426 C 75.9154 % 5.25 C
969 10-04-2014 00:00:00 10.31543 C 77.0864 % 6.48 C
970 11-04-2014 00:00:00 14.56849 C 72.5000 % 9.69 C
971 12-04-2014 00:00:00 12.65368 C 70.8982 % 7.52 C
972 13-04-2014 00:00:00 11.60669 C 71.0599 % 6.55 C
973 14-04-2014 00:00:00 9.7593 C 71.2491 % 4.81 C
974 15-04-2014 00:00:00 7.10171 C 73.7991 % 2.75 C
975 16-04-2014 00:00:00 12.97192 C 49.4521 % 2.65 C
Sensor: Nr:Datum:Temp:Feuchte:Taupunkt:
Aussen-T/F 976 17-04-2014 00:00:00 9.85313 C 63.3021 % 3.22 C
977 18-04-2014 00:00:00 10.72049 C 64.8750 % 4.39 C
978 19-04-2014 00:00:00 10.82049 C 71.8993 % 5.96 C
979 20-04-2014 00:00:00 14.91825 C 70.5509 % 9.62 C
980 21-04-2014 00:00:00 12.49479 C 77.9896 % 8.77 C
981 22-04-2014 00:00:00 12.82847 C 85.6076 % 10.48 C
982 23-04-2014 00:00:00 13.43958 C 81.1771 % 10.28 C
983 24-04-2014 00:00:00 15.42535 C 79.0035 % 11.8 C
984 25-04-2014 00:00:00 16.71562 C 74.1319 % 12.09 C
985 26-04-2014 00:00:00 15.2 C 74.7604 % 10.75 C
986 27-04-2014 00:00:00 13.07674 C 81.7986 % 10.04 C
987 28-04-2014 00:00:00 12.80243 C 79.8715 % 9.42 C
988 29-04-2014 00:00:00 13.43403 C 90.3056 % 11.88 C
989 30-04-2014 00:00:00 14.53507 C 84.7500 % 12 C
990 01-05-2014 00:00:00 14.73611 C 81.3611 % 11.58 C
991 02-05-2014 00:00:00 11.71319 C 86.6736 % 9.57 C
992 03-05-2014 00:00:00 10.92708 C 61.0069 % 3.71 C
993 04-05-2014 00:00:00 9.61042 C 68.0590 % 4.02 C
994 05-05-2014 00:00:00 12.60069 C 67.5521 % 6.76 C
995 06-05-2014 00:00:00 13.72083 C 74.2778 % 9.23 C
996 07-05-2014 00:00:00 13.05764 C 84.9931 % 10.6 C
997 08-05-2014 00:00:00 12.32847 C 84.6146 % 9.81 C
998 09-05-2014 00:00:00 15.33403 C 71.0833 % 10.13 C
999 10-05-2014 00:00:00 12.40903 C 81.6528 % 9.36 C
1000 11-05-2014 00:00:00 11.45764 C 80.1667 % 8.16 C
Sensor: Nr:Datum:Temp:Feuchte:Taupunkt:
Aussen-T/F 1001 12-05-2014 00:00:00 11.1941 C 74.9167 % 6.92 C
1002 13-05-2014 00:00:00 10.30729 C 85.3368 % 7.96 C
1003 14-05-2014 00:00:00 10.63542 C 76.9514 % 6.77 C
1004 15-05-2014 00:00:00 10.00382 C 80.4757 % 6.8 C
1005 16-05-2014 00:00:00 13.25347 C 73.1250 % 8.55 C
1006 17-05-2014 00:00:00 14.22292 C 71.7500 % 9.2 C
1007 18-05-2014 00:00:00 15.4809 C 74.3021 % 10.93 C
1008 19-05-2014 00:00:00 17.57188 C 70.6944 % 12.19 C
1009 20-05-2014 00:00:00 19.46562 C 67.3681 % 13.26 C
1010 21-05-2014 00:00:00 20.29792 C 68.1181 % 14.23 C
1011 22-05-2014 00:00:00 20.21806 C 65.7465 % 13.61 C
1012 23-05-2014 00:00:00 15.52639 C 89.6667 % 13.84 C
1013 24-05-2014 00:00:00 14.72993 C 81.1514 % 11.53 C
1014 25-05-2014 00:00:00 15.25071 C 74.9149 % 10.83 C
1015 26-05-2014 00:00:00 16.8625 C 80.3056 % 13.45 C
1016 27-05-2014 00:00:00 15.19431 C 94.7346 % 14.36 C
1017 28-05-2014 00:00:00 14.58118 C 88.4000 % 12.69 C
1018 29-05-2014 00:00:00 13.44653 C 87.1042 % 11.35 C
1019 30-05-2014 00:00:00 13.2316 C 70.4167 % 7.97 C
1020 31-05-2014 00:00:00 13.40382 C 74.2639 % 8.92 C
1021 01-06-2014 00:00:00 15.49273 C 69.6545 % 9.98 C
1022 02-06-2014 00:00:00 15.88943 C 67.9715 % 9.99 C
1023 03-06-2014 00:00:00 15.78662 C 74.8627 % 11.34 C
1024 04-06-2014 00:00:00 14.95388 C 86.4155 % 12.71 C
1025 05-06-2014 00:00:00 14.55765 C 67.7687 % 8.68 C
Sensor: Nr:Datum:Temp:Feuchte:Taupunkt:
Aussen-T/F 1026 06-06-2014 00:00:00 17.20312 C 67.7778 % 11.2 C
1027 07-06-2014 00:00:00 20.77257 C 72.3750 % 15.62 C
1028 08-06-2014 00:00:00 24.09514 C 70.7431 % 18.45 C
1029 09-06-2014 00:00:00 25.74583 C 69.9583 % 19.85 C
1030 10-06-2014 00:00:00 23.66632 C 70.6389 % 18.01 C
1031 11-06-2014 00:00:00 20.10803 C 81.3175 % 16.81 C
1032 12-06-2014 00:00:00 19.97431 C 66.4583 % 13.54 C
1033 13-06-2014 00:00:00 18.37014 C 68.1597 % 12.4 C
1034 14-06-2014 00:00:00 17.27465 C 65.5104 % 10.76 C
1035 15-06-2014 00:00:00 16.86944 C 67.1875 % 10.75 C
1036 16-06-2014 00:00:00 15.61944 C 74.7396 % 11.15 C
1037 17-06-2014 00:00:00 17.41354 C 66.8819 % 11.2 C
1038 18-06-2014 00:00:00 17.76319 C 71.4931 % 12.54 C
1039 19-06-2014 00:00:00 15.70791 C 75.5252 % 11.4 C
1040 20-06-2014 00:00:00 15.64143 C 71.1667 % 10.44 C
1041 21-06-2014 00:00:00 16.62118 C 65.5903 % 10.15 C
1042 22-06-2014 00:00:00 16.62782 C 66.3415 % 10.33 C
1043 23-06-2014 00:00:00 17.14792 C 65.1910 % 10.56 C
1044 24-06-2014 00:00:00 16.64978 C 71.6277 % 11.5 C
1045 25-06-2014 00:00:00 17.29096 C 56.5426 % 8.58 C
1046 26-06-2014 00:00:00 16.18958 C 64.0764 % 9.4 C
1047 27-06-2014 00:00:00 17.54167 C 67.2604 % 11.41 C
1048 28-06-2014 00:00:00 16.28043 C 87.3950 % 14.18 C
1049 29-06-2014 00:00:00 14.67192 C 93.3251 % 13.61 C
1050 30-06-2014 00:00:00 16.05247 C 75.2167 % 11.67 C
Sensor: Nr:Datum:Temp:Feuchte:Taupunkt:
Aussen-T/F 1051 01-07-2014 00:00:00 15.65035 C 70.2917 % 10.26 C
1052 02-07-2014 00:00:00 16.86146 C 65.5313 % 10.37 C
1053 03-07-2014 00:00:00 19.78889 C 59.6493 % 11.72 C
1054 04-07-2014 00:00:00 20.36076 C 67.5382 % 14.16 C
1055 05-07-2014 00:00:00 20.4 C 77.3439 % 16.3 C
1056 06-07-2014 00:00:00 23.48509 C 69.7818 % 17.65 C
1057 07-07-2014 00:00:00 19.86367 C 64.8202 % 13.05 C
1058 08-07-2014 00:00:00 15.57633 C 89.8898 % 13.92 C
1059 09-07-2014 00:00:00 12.97083 C 95.1667 % 12.22 C
1060 10-07-2014 00:00:00 17.68292 C 90.2000 % 16.06 C
1061 11-07-2014 00:00:00 18.42369 C 88.6466 % 16.51 C
1062 12-07-2014 00:00:00 18.68363 C 88.1018 % 16.67 C
1063 13-07-2014 00:00:00 19.06941 C 85.5922 % 16.6 C
1064 14-07-2014 00:00:00 19.60206 C 79.5021 % 15.96 C
1065 15-07-2014 00:00:00 21.3216 C 70.6901 % 15.78 C
1066 16-07-2014 00:00:00 21.88732 C 74.8829 % 17.23 C
1067 17-07-2014 00:00:00 23.77903 C 70.2742 % 18.04 C
1068 18-07-2014 00:00:00 24.87935 C 65.5097 % 17.97 C
1069 19-07-2014 00:00:00 27.76989 C 58.4086 % 18.86 C
1070 20-07-2014 00:00:00 22.68715 C 80.6840 % 19.19 C
1071 21-07-2014 00:00:00 20.29965 C 91.0660 % 18.79 C
1072 22-07-2014 00:00:00 23.6856 C 82.0494 % 20.44 C
1073 23-07-2014 00:00:00 23.11788 C 73.8869 % 18.2 C
1074 24-07-2014 00:00:00 20.63922 C 73.5020 % 15.74 C
1075 25-07-2014 00:00:00 21.8193 C 72.9825 % 16.76 C
Sensor: Nr:Datum:Temp:Feuchte:Taupunkt:
Aussen-T/F 1076 26-07-2014 00:00:00 21.92 C 74.3097 % 17.14 C
1077 27-07-2014 00:00:00 19.66694 C 83.9339 % 16.88 C
1078 28-07-2014 00:00:00 22.3284 C 78.8580 % 18.48 C
1079 29-07-2014 00:00:00 19.88194 C 95.8125 % 19.19 C
1080 30-07-2014 00:00:00 19.93194 C 85.4097 % 17.41 C
1081 31-07-2014 00:00:00 20.20645 C 77.0896 % 16.06 C
1082 01-08-2014 00:00:00 20.08438 C 81.7153 % 16.86 C
1083 02-08-2014 00:00:00 20.10868 C 84.8264 % 17.48 C
1084 03-08-2014 00:00:00 21.3566 C 81.2743 % 18.02 C
1085 04-08-2014 00:00:00 19.00347 C 86.5799 % 16.71 C
1086 05-08-2014 00:00:00 18.77049 C 82.0208 % 15.64 C
1087 06-08-2014 00:00:00 17.59618 C 84.4201 % 14.94 C
1088 07-08-2014 00:00:00 18.9934 C 85.7986 % 16.56 C
1089 08-08-2014 00:00:00 18.87604 C 89.5625 % 17.12 C
1090 09-08-2014 00:00:00 20.16771 C 80.6076 % 16.73 C
1091 10-08-2014 00:00:00 19.0125 C 90.0208 % 17.34 C
1092 11-08-2014 00:00:00 17.0066 C 81.0000 % 13.72 C
1093 12-08-2014 00:00:00 17.62431 C 72.1944 % 12.56 C
1094 13-08-2014 00:00:00 15.97674 C 89.6528 % 14.28 C
1095 14-08-2014 00:00:00 16.15426 C 84.3298 % 13.51 C
1096 15-08-2014 00:00:00 14.48638 C 92.1720 % 13.23 C

Maximal/Minimal-Werte vom 16.08.2011 - 15.08.2014

Sensor Min Max Avg
Temp
(Aussen-T/F)
-15.3 °C
07-02-2012  08:00:00
36.9 °C
19-08-2012  16:30:00
10.58 °C
Feuchte
(Aussen-T/F)
20 %
17-08-2011  15:55:02
100 %
07-10-2012  03:05:00
81.48 %
Taupunkt
(Aussen-T/F)
-15.35 C
02-02-2012  00:00:00
21.36 C
19-06-2013  00:00:00
7.37 C

Die Daten stammen von einer Davis Vantage Pro 2 Wetter-Station und werden unter Linux mit der Software wview2wettercgi und aufbereitet. Alle Angaben erfolgen ohne Gewähr für ihre Vollständigkeit oder Richtigkeit.
Kontakt: Rainer Krienke krienke@uni-koblenz.de . Meine Webseiten an der Uni Koblenz oder privat.
Version: $Revision: 0.78 $